Time;durP1;ratioP1;P1;durP2;ratioP2;P2;SDS_P1;SDS_P2;PMS_P1;PMS_P2;Temp;Humidity;BMP_temperature;BMP_pressure;BME280_temperature;BME280_humidity;BME280_pressure;Samples;Min_cycle;Max_cycle;Signal;HPM_P1;HPM_P2
2022/03/31 00:00:47;;;;;;;;;;;4.20;99.90;;;;;;5015083;28;20300;-74
2022/03/31 00:03:14;;;;;;;;;;;4.30;99.90;;;;;;5025334;28;20377;-71
2022/03/31 00:05:40;;;;;;;;;;;4.30;99.90;;;;;;5001199;28;19976;-72
2022/03/31 00:08:07;;;;;;;;;;;4.40;99.90;;;;;;5018039;28;19925;-72
2022/03/31 00:10:34;;;;;;;;;;;4.40;99.90;;;;;;5028011;28;19936;-71
2022/03/31 00:13:00;;;;;;;;;;;4.40;99.90;;;;;;5024199;28;19967;-71
2022/03/31 00:15:27;;;;;;;;;;;4.40;99.90;;;;;;5016443;28;19925;-71
2022/03/31 00:17:54;;;;;;;;;;;4.50;99.90;;;;;;5030330;28;19972;-71
2022/03/31 00:20:20;;;;;;;;;;;4.40;99.90;;;;;;5017617;28;19932;-71
2022/03/31 00:22:47;;;;;;;;;;;4.40;99.90;;;;;;5015425;28;19926;-71
2022/03/31 00:25:13;;;;;;;;;;;4.40;99.90;;;;;;5023762;28;19926;-72
2022/03/31 00:27:40;;;;;;;;;;;4.40;99.90;;;;;;5007537;28;19925;-72
2022/03/31 00:30:06;;;;;;;;;;;4.40;99.90;;;;;;5023511;28;19964;-71
2022/03/31 00:32:33;;;;;;;;;;;4.30;99.90;;;;;;5015069;28;20369;-75
2022/03/31 00:34:59;;;;;;;;;;;4.30;99.90;;;;;;5025231;28;19929;-71
2022/03/31 00:37:27;;;;;;;;;;;4.30;99.90;;;;;;5025024;28;19925;-71
2022/03/31 00:39:54;;;;;;;;;;;4.30;99.90;;;;;;5028709;28;19937;-73
2022/03/31 00:42:21;;;;;;;;;;;4.20;99.90;;;;;;5030389;28;19925;-71
2022/03/31 00:44:47;;;;;;;;;;;4.20;99.90;;;;;;5030579;28;19957;-71
2022/03/31 00:47:15;;;;;;;;;;;4.20;99.90;;;;;;5019138;28;20385;-71
2022/03/31 00:49:41;;;;;;;;;;;4.10;99.90;;;;;;5009593;28;19975;-71
2022/03/31 00:52:08;;;;;;;;;;;4.10;99.90;;;;;;5034599;28;19925;-71
2022/03/31 00:54:34;;;;;;;;;;;4.10;99.90;;;;;;5034448;28;19925;-71
2022/03/31 00:57:02;;;;;;;;;;;4.10;99.90;;;;;;5031058;28;20288;-73
2022/03/31 00:59:29;;;;;;;;;;;4.00;99.90;;;;;;5021873;28;19940;-71
2022/03/31 01:01:55;;;;;;;;;;;4.10;99.90;;;;;;5030732;28;20262;-72
2022/03/31 01:04:22;;;;;;;;;;;4.10;99.90;;;;;;5025027;28;20402;-71
2022/03/31 01:06:49;;;;;;;;;;;4.10;99.90;;;;;;5011482;28;19932;-71
2022/03/31 01:09:15;;;;;;;;;;;3.90;99.90;;;;;;5022916;28;19929;-71
2022/03/31 01:11:42;;;;;;;;;;;4.00;99.90;;;;;;5024278;28;19974;-72
2022/03/31 01:14:08;;;;;;;;;;;4.00;99.90;;;;;;5028305;28;19932;-72
2022/03/31 01:16:35;;;;;;;;;;;3.90;99.90;;;;;;5032032;28;19925;-71
2022/03/31 01:19:01;;;;;;;;;;;3.90;99.90;;;;;;5025144;28;19944;-72
2022/03/31 01:21:28;;;;;;;;;;;4.00;99.90;;;;;;5034834;28;19925;-71
2022/03/31 01:23:55;;;;;;;;;;;4.00;99.90;;;;;;5009803;28;19926;-75
2022/03/31 01:26:21;;;;;;;;;;;4.00;99.90;;;;;;5030791;28;19928;-71
2022/03/31 01:28:48;;;;;;;;;;;4.00;99.90;;;;;;5023006;28;20392;-71
2022/03/31 01:31:14;;;;;;;;;;;3.90;99.90;;;;;;5026708;28;19936;-72
2022/03/31 01:33:41;;;;;;;;;;;3.90;99.90;;;;;;5024272;28;19951;-72
2022/03/31 01:36:08;;;;;;;;;;;3.80;99.90;;;;;;5016767;28;20377;-72
2022/03/31 01:38:34;;;;;;;;;;;3.80;99.90;;;;;;5015523;28;19947;-71
2022/03/31 01:41:01;;;;;;;;;;;3.90;99.90;;;;;;5019112;28;19929;-72
2022/03/31 01:43:27;;;;;;;;;;;3.90;99.90;;;;;;5002404;28;19948;-72
2022/03/31 01:45:54;;;;;;;;;;;3.90;99.90;;;;;;5017816;28;19925;-71
2022/03/31 01:48:21;;;;;;;;;;;3.80;99.90;;;;;;5024148;28;19926;-70
2022/03/31 01:50:47;;;;;;;;;;;3.70;99.90;;;;;;5027844;28;19925;-71
2022/03/31 01:53:14;;;;;;;;;;;3.70;99.90;;;;;;5022390;28;19929;-72
2022/03/31 01:55:41;;;;;;;;;;;3.60;99.90;;;;;;5023904;28;19933;-72
2022/03/31 01:58:07;;;;;;;;;;;3.60;99.90;;;;;;5029595;28;19925;-72
2022/03/31 02:00:35;;;;;;;;;;;3.50;99.90;;;;;;5035872;28;19929;-72
2022/03/31 02:03:02;;;;;;;;;;;3.50;99.90;;;;;;5020182;28;19999;-72
2022/03/31 02:05:28;;;;;;;;;;;3.50;99.90;;;;;;5019012;28;19925;-72
2022/03/31 02:07:55;;;;;;;;;;;3.50;99.90;;;;;;5015951;28;19929;-72
2022/03/31 02:10:21;;;;;;;;;;;3.50;99.90;;;;;;5023683;28;19929;-71
2022/03/31 02:12:49;;;;;;;;;;;3.50;99.90;;;;;;5021350;28;19925;-72
2022/03/31 02:15:16;;;;;;;;;;;3.50;99.90;;;;;;5026601;28;19930;-71
2022/03/31 02:17:42;;;;;;;;;;;3.60;99.90;;;;;;5010367;28;19932;-72
2022/03/31 02:20:09;;;;;;;;;;;3.50;99.90;;;;;;5024945;28;20030;-72
2022/03/31 02:22:35;;;;;;;;;;;3.50;99.90;;;;;;5011426;28;19925;-72
2022/03/31 02:25:02;;;;;;;;;;;3.50;99.90;;;;;;5014370;28;19933;-75
2022/03/31 02:27:28;;;;;;;;;;;3.50;99.90;;;;;;5023581;28;19933;-71
2022/03/31 02:29:55;;;;;;;;;;;3.50;99.90;;;;;;5014748;28;19934;-71
2022/03/31 02:32:22;;;;;;;;;;;3.70;99.90;;;;;;5003736;28;19929;-73
2022/03/31 02:34:48;;;;;;;;;;;3.60;99.90;;;;;;5033217;28;19924;-71
2022/03/31 02:37:15;;;;;;;;;;;3.60;99.90;;;;;;5035836;28;19932;-71
2022/03/31 02:39:41;;;;;;;;;;;3.60;99.90;;;;;;5019514;28;19932;-70
2022/03/31 02:42:08;;;;;;;;;;;3.50;99.90;;;;;;5025795;28;19932;-71
2022/03/31 02:44:34;;;;;;;;;;;3.60;99.90;;;;;;5020434;28;19925;-70
2022/03/31 02:47:01;;;;;;;;;;;3.50;99.90;;;;;;5030244;28;19936;-75
2022/03/31 02:49:27;;;;;;;;;;;3.60;99.90;;;;;;5016781;28;20008;-71
2022/03/31 02:51:54;;;;;;;;;;;3.40;99.90;;;;;;5018422;28;19932;-71
2022/03/31 02:57:05;;;;;;;;;;;3.40;99.90;;;;;;5020763;28;19931;-75
2022/03/31 02:59:31;;;;;;;;;;;3.50;99.90;;;;;;5031336;28;19925;-71
2022/03/31 03:01:58;;;;;;;;;;;3.50;99.90;;;;;;5031406;28;19972;-71
2022/03/31 03:04:25;;;;;;;;;;;3.60;99.90;;;;;;5023717;28;20473;-71
2022/03/31 03:06:51;;;;;;;;;;;3.60;99.90;;;;;;5028596;28;19925;-71
2022/03/31 03:09:18;;;;;;;;;;;3.50;99.90;;;;;;5030644;28;19925;-74
2022/03/31 03:11:44;;;;;;;;;;;3.40;99.90;;;;;;5005710;28;19933;-71
2022/03/31 03:14:13;;;;;;;;;;;3.40;99.90;;;;;;5024312;28;19925;-71
2022/03/31 03:16:40;;;;;;;;;;;3.30;99.90;;;;;;5007697;28;20511;-70
2022/03/31 03:19:07;;;;;;;;;;;3.40;99.90;;;;;;5002724;28;20293;-73
2022/03/31 03:21:34;;;;;;;;;;;3.30;99.90;;;;;;5025108;28;19933;-71
2022/03/31 03:24:01;;;;;;;;;;;3.40;99.90;;;;;;5026451;28;20381;-70
2022/03/31 03:26:28;;;;;;;;;;;3.40;99.90;;;;;;5016877;28;20011;-72
2022/03/31 03:28:54;;;;;;;;;;;3.40;99.90;;;;;;5004441;28;19925;-72
2022/03/31 03:31:21;;;;;;;;;;;3.40;99.90;;;;;;5028392;28;19929;-72
2022/03/31 03:33:47;;;;;;;;;;;3.40;99.90;;;;;;5021033;28;19925;-72
2022/03/31 03:36:16;;;;;;;;;;;3.30;99.90;;;;;;5028972;28;19932;-72
2022/03/31 03:38:43;;;;;;;;;;;3.40;99.90;;;;;;5024354;28;19929;-72
2022/03/31 03:41:10;;;;;;;;;;;3.30;99.90;;;;;;5030680;28;19925;-72
2022/03/31 03:43:37;;;;;;;;;;;3.10;99.90;;;;;;5018762;28;19949;-72
2022/03/31 03:46:03;;;;;;;;;;;3.20;99.90;;;;;;5022576;28;20291;-72
2022/03/31 03:48:30;;;;;;;;;;;3.10;99.90;;;;;;5029824;28;19931;-72
2022/03/31 03:50:57;;;;;;;;;;;3.20;99.90;;;;;;5024179;28;19925;-72
2022/03/31 03:53:23;;;;;;;;;;;3.20;99.90;;;;;;5022087;28;19925;-72
2022/03/31 03:55:50;;;;;;;;;;;3.20;99.90;;;;;;5017281;28;19925;-72
2022/03/31 03:58:16;;;;;;;;;;;3.20;99.90;;;;;;5018934;28;19929;-72
2022/03/31 04:00:43;;;;;;;;;;;3.20;99.90;;;;;;5027789;28;19925;-72
2022/03/31 04:03:10;;;;;;;;;;;3.10;99.90;;;;;;5020653;28;19925;-75
2022/03/31 04:05:37;;;;;;;;;;;3.00;99.90;;;;;;5025411;28;20018;-72
2022/03/31 04:08:03;;;;;;;;;;;3.00;99.90;;;;;;5023931;28;19929;-70
2022/03/31 04:10:30;;;;;;;;;;;3.00;99.90;;;;;;5021800;28;19926;-72
2022/03/31 04:12:57;;;;;;;;;;;3.00;99.90;;;;;;5020011;28;19932;-72
2022/03/31 04:15:23;;;;;;;;;;;2.90;99.90;;;;;;5024765;28;19926;-72
2022/03/31 04:17:50;;;;;;;;;;;3.10;99.90;;;;;;5028477;28;19925;-74
2022/03/31 04:20:17;;;;;;;;;;;3.10;99.90;;;;;;5016080;28;20289;-72
2022/03/31 04:22:43;;;;;;;;;;;3.00;99.90;;;;;;5025139;28;20371;-72
2022/03/31 04:25:10;;;;;;;;;;;3.00;99.90;;;;;;5029355;28;20017;-76
2022/03/31 04:27:37;;;;;;;;;;;3.00;99.90;;;;;;4999066;28;19926;-71
2022/03/31 04:30:03;;;;;;;;;;;3.00;99.90;;;;;;5006126;28;19932;-72
2022/03/31 04:32:30;;;;;;;;;;;3.00;99.90;;;;;;5027630;28;20024;-72
2022/03/31 04:34:56;;;;;;;;;;;3.00;99.90;;;;;;5012548;28;19925;-72
2022/03/31 04:37:23;;;;;;;;;;;3.00;99.90;;;;;;5027155;28;19925;-72
2022/03/31 04:39:49;;;;;;;;;;;2.90;99.90;;;;;;5025577;28;19933;-71
2022/03/31 04:42:16;;;;;;;;;;;2.90;99.90;;;;;;5026561;28;19925;-72
2022/03/31 04:44:43;;;;;;;;;;;2.90;99.90;;;;;;5024191;28;19929;-72
2022/03/31 04:47:11;;;;;;;;;;;2.90;99.90;;;;;;5027757;28;19925;-71
2022/03/31 04:49:38;;;;;;;;;;;3.00;99.90;;;;;;5015405;28;19930;-70
2022/03/31 04:52:05;;;;;;;;;;;3.00;99.90;;;;;;5018499;28;19937;-72
2022/03/31 04:54:31;;;;;;;;;;;3.00;99.90;;;;;;5024525;28;20748;-72
2022/03/31 04:56:58;;;;;;;;;;;2.80;99.90;;;;;;5001608;28;19926;-72
2022/03/31 04:59:24;;;;;;;;;;;2.70;99.90;;;;;;5005551;28;19933;-72
2022/03/31 05:01:51;;;;;;;;;;;2.70;99.90;;;;;;5014748;28;19932;-71
2022/03/31 05:04:18;;;;;;;;;;;2.70;99.90;;;;;;5029944;28;20361;-72
2022/03/31 05:06:44;;;;;;;;;;;2.80;99.90;;;;;;5030764;28;19928;-72
2022/03/31 05:09:11;;;;;;;;;;;2.90;99.90;;;;;;5025723;28;20035;-71
2022/03/31 05:11:37;;;;;;;;;;;2.90;99.90;;;;;;5028227;28;20292;-71
2022/03/31 05:14:05;;;;;;;;;;;2.80;99.90;;;;;;5025757;28;20307;-72
2022/03/31 05:16:31;;;;;;;;;;;2.70;99.90;;;;;;5017788;28;19976;-72
2022/03/31 05:18:58;;;;;;;;;;;2.80;99.90;;;;;;5018399;28;19933;-72
2022/03/31 05:21:24;;;;;;;;;;;2.80;99.90;;;;;;5030480;28;19984;-72
2022/03/31 05:23:51;;;;;;;;;;;2.70;99.90;;;;;;5010492;28;20297;-72
2022/03/31 05:26:17;;;;;;;;;;;2.70;99.90;;;;;;5029624;28;20385;-72
2022/03/31 05:28:44;;;;;;;;;;;2.70;99.90;;;;;;5023584;28;19926;-72
2022/03/31 05:31:10;;;;;;;;;;;2.60;99.90;;;;;;5032509;28;19971;-71
2022/03/31 05:33:37;;;;;;;;;;;2.50;99.90;;;;;;5029851;28;19936;-72
2022/03/31 05:36:04;;;;;;;;;;;2.40;99.90;;;;;;5027421;28;19950;-72
2022/03/31 05:38:30;;;;;;;;;;;2.40;99.90;;;;;;5030107;28;19925;-71
2022/03/31 05:40:57;;;;;;;;;;;2.30;99.90;;;;;;5019048;28;19932;-72
2022/03/31 05:43:23;;;;;;;;;;;2.30;99.90;;;;;;5027563;28;20450;-71
2022/03/31 05:45:50;;;;;;;;;;;2.30;99.90;;;;;;5010703;28;20384;-72
2022/03/31 05:48:16;;;;;;;;;;;2.20;99.90;;;;;;5016691;28;19932;-75
2022/03/31 05:50:43;;;;;;;;;;;2.30;99.90;;;;;;5030738;28;20304;-71
2022/03/31 05:53:09;;;;;;;;;;;2.10;99.90;;;;;;5020797;28;20378;-72
2022/03/31 05:55:36;;;;;;;;;;;2.10;99.90;;;;;;5026441;28;20506;-71
2022/03/31 05:58:03;;;;;;;;;;;2.10;99.90;;;;;;5023660;28;19929;-71
2022/03/31 06:00:29;;;;;;;;;;;2.20;99.90;;;;;;5021701;28;19933;-71
2022/03/31 06:02:56;;;;;;;;;;;2.20;99.90;;;;;;5018430;28;19932;-71
2022/03/31 06:05:22;;;;;;;;;;;2.20;99.90;;;;;;5001218;28;20344;-73
2022/03/31 06:07:51;;;;;;;;;;;2.20;99.90;;;;;;4998727;28;19930;-73
2022/03/31 06:10:18;;;;;;;;;;;2.20;99.90;;;;;;5013510;28;19929;-74
2022/03/31 06:12:44;;;;;;;;;;;2.10;99.90;;;;;;4996272;28;19941;-71
2022/03/31 06:15:11;;;;;;;;;;;2.10;99.90;;;;;;5016953;28;19931;-71
2022/03/31 06:17:37;;;;;;;;;;;2.10;99.90;;;;;;5015783;28;19932;-71
2022/03/31 06:20:04;;;;;;;;;;;2.10;99.90;;;;;;5017893;28;19932;-71
2022/03/31 06:22:30;;;;;;;;;;;2.20;99.90;;;;;;5001864;28;19929;-71
2022/03/31 06:24:57;;;;;;;;;;;2.20;99.90;;;;;;5017200;28;19925;-71
2022/03/31 06:27:24;;;;;;;;;;;2.20;99.90;;;;;;4999110;28;19932;-72
2022/03/31 06:29:52;;;;;;;;;;;2.20;99.90;;;;;;5013801;28;19933;-72
2022/03/31 06:32:19;;;;;;;;;;;2.20;99.90;;;;;;4997321;28;19926;-75
2022/03/31 06:34:45;;;;;;;;;;;2.30;99.90;;;;;;4997372;28;20399;-72
2022/03/31 06:37:13;;;;;;;;;;;2.30;99.90;;;;;;5001419;28;20016;-72
2022/03/31 06:39:39;;;;;;;;;;;2.30;99.90;;;;;;5013237;28;20037;-72
2022/03/31 06:42:06;;;;;;;;;;;2.30;99.90;;;;;;5001533;28;19925;-72
2022/03/31 06:44:32;;;;;;;;;;;2.30;99.90;;;;;;4998265;28;20344;-72
2022/03/31 06:46:59;;;;;;;;;;;2.30;99.90;;;;;;4995947;28;20395;-72
2022/03/31 06:49:25;;;;;;;;;;;2.30;99.90;;;;;;5015722;28;20360;-72
2022/03/31 06:51:52;;;;;;;;;;;2.30;99.90;;;;;;4998523;28;19936;-72
2022/03/31 06:54:19;;;;;;;;;;;2.30;99.90;;;;;;4998512;28;19929;-72
2022/03/31 06:56:46;;;;;;;;;;;2.30;99.90;;;;;;4997580;28;19926;-72
2022/03/31 06:59:13;;;;;;;;;;;2.30;99.90;;;;;;4998240;28;19929;-72
2022/03/31 07:01:40;;;;;;;;;;;2.30;99.90;;;;;;5018024;28;19929;-72
2022/03/31 07:04:07;;;;;;;;;;;2.30;99.90;;;;;;4999907;28;19926;-72
2022/03/31 07:06:33;;;;;;;;;;;2.40;99.90;;;;;;4997264;28;19929;-73
2022/03/31 07:09:00;;;;;;;;;;;2.40;99.90;;;;;;5012283;28;19925;-72
2022/03/31 07:11:26;;;;;;;;;;;2.50;99.90;;;;;;5013771;28;19933;-72
2022/03/31 07:13:53;;;;;;;;;;;2.40;99.90;;;;;;4996015;28;19932;-72
2022/03/31 07:16:19;;;;;;;;;;;2.50;99.90;;;;;;5013996;28;19932;-72
2022/03/31 07:18:47;;;;;;;;;;;2.50;99.90;;;;;;5000616;28;20021;-71
2022/03/31 07:21:14;;;;;;;;;;;2.50;99.90;;;;;;5017846;28;20012;-72
2022/03/31 07:23:41;;;;;;;;;;;2.50;99.90;;;;;;5013602;28;19929;-72
2022/03/31 07:26:08;;;;;;;;;;;2.50;99.90;;;;;;4998061;28;20300;-72
2022/03/31 07:28:34;;;;;;;;;;;2.60;99.90;;;;;;5000093;28;19934;-73
2022/03/31 07:31:01;;;;;;;;;;;2.60;99.90;;;;;;5002662;28;19948;-72
2022/03/31 07:33:27;;;;;;;;;;;2.60;99.90;;;;;;5013249;28;19926;-72
2022/03/31 07:35:54;;;;;;;;;;;2.50;99.90;;;;;;5016756;28;20431;-73
2022/03/31 07:38:20;;;;;;;;;;;2.50;99.90;;;;;;5012467;28;20380;-72
2022/03/31 07:40:48;;;;;;;;;;;2.50;99.90;;;;;;4994590;28;19941;-72
2022/03/31 07:43:14;;;;;;;;;;;2.50;99.90;;;;;;5014592;28;19979;-72
2022/03/31 07:45:41;;;;;;;;;;;2.50;99.90;;;;;;5015202;28;19971;-73
2022/03/31 07:48:08;;;;;;;;;;;2.50;99.90;;;;;;5014576;28;19939;-72
2022/03/31 07:50:35;;;;;;;;;;;2.40;99.90;;;;;;5020277;28;20000;-72
2022/03/31 07:53:01;;;;;;;;;;;2.40;99.90;;;;;;5018693;28;19933;-73
2022/03/31 07:55:28;;;;;;;;;;;2.40;99.90;;;;;;4997383;28;19932;-73
2022/03/31 07:57:54;;;;;;;;;;;2.40;99.90;;;;;;5012453;28;19932;-72
2022/03/31 08:00:21;;;;;;;;;;;2.20;99.90;;;;;;5017176;28;19941;-73
2022/03/31 08:02:48;;;;;;;;;;;2.30;99.90;;;;;;4998643;28;19925;-73
2022/03/31 08:05:14;;;;;;;;;;;2.30;99.90;;;;;;5016717;28;19926;-72
2022/03/31 08:07:41;;;;;;;;;;;2.00;99.90;;;;;;5014623;28;19925;-73
2022/03/31 08:10:08;;;;;;;;;;;2.00;99.90;;;;;;5014757;28;19932;-72
2022/03/31 08:12:35;;;;;;;;;;;2.00;99.90;;;;;;5011329;28;19929;-72
2022/03/31 08:15:01;;;;;;;;;;;2.00;99.90;;;;;;5016000;28;19925;-73
2022/03/31 08:17:28;;;;;;;;;;;2.00;99.90;;;;;;4998835;28;19932;-75
2022/03/31 08:19:55;;;;;;;;;;;2.00;99.90;;;;;;5018900;28;19925;-72
2022/03/31 08:22:22;;;;;;;;;;;1.90;99.90;;;;;;5017065;28;19932;-72
2022/03/31 08:24:48;;;;;;;;;;;1.90;99.90;;;;;;4999963;28;20462;-72
2022/03/31 08:27:15;;;;;;;;;;;1.90;99.90;;;;;;5008943;28;19949;-72
2022/03/31 08:29:42;;;;;;;;;;;1.90;99.90;;;;;;5026569;28;20293;-71
2022/03/31 08:32:08;;;;;;;;;;;1.90;99.90;;;;;;5013450;28;19929;-73
2022/03/31 08:34:35;;;;;;;;;;;1.80;99.90;;;;;;5009080;28;19932;-73
2022/03/31 08:37:01;;;;;;;;;;;1.80;99.90;;;;;;5011871;28;19926;-72
2022/03/31 08:39:28;;;;;;;;;;;1.90;99.90;;;;;;5011395;28;19925;-75
2022/03/31 08:41:54;;;;;;;;;;;1.80;99.90;;;;;;5020294;28;20405;-73
2022/03/31 08:44:21;;;;;;;;;;;1.80;99.90;;;;;;5011893;28;19933;-72
2022/03/31 08:46:47;;;;;;;;;;;1.70;99.90;;;;;;5025879;28;19925;-73
2022/03/31 08:49:14;;;;;;;;;;;1.70;99.90;;;;;;5019440;28;19936;-73
2022/03/31 08:51:41;;;;;;;;;;;1.80;99.90;;;;;;5024974;28;19926;-73
2022/03/31 08:54:08;;;;;;;;;;;1.80;99.90;;;;;;5030426;28;19933;-73
2022/03/31 08:56:35;;;;;;;;;;;1.90;99.90;;;;;;5032697;28;19987;-73
2022/03/31 08:59:02;;;;;;;;;;;1.80;99.90;;;;;;5033430;28;19925;-73
2022/03/31 09:01:30;;;;;;;;;;;1.80;99.90;;;;;;5007594;28;19940;-73
2022/03/31 09:03:57;;;;;;;;;;;1.70;99.90;;;;;;5000882;28;19925;-72
2022/03/31 09:06:23;;;;;;;;;;;1.70;99.90;;;;;;5018792;28;20015;-73
2022/03/31 09:08:50;;;;;;;;;;;1.80;99.90;;;;;;5016793;28;20197;-73
2022/03/31 09:11:16;;;;;;;;;;;1.80;99.90;;;;;;5014743;28;20300;-73
2022/03/31 09:13:43;;;;;;;;;;;1.80;99.90;;;;;;5032186;28;20377;-73
2022/03/31 09:16:11;;;;;;;;;;;1.70;99.90;;;;;;5026588;28;19929;-73
2022/03/31 09:18:37;;;;;;;;;;;1.70;99.90;;;;;;5033012;28;19925;-72
2022/03/31 09:21:04;;;;;;;;;;;1.60;99.90;;;;;;5007640;28;19929;-73
2022/03/31 09:23:31;;;;;;;;;;;1.70;99.90;;;;;;5017471;28;19932;-73
2022/03/31 09:25:57;;;;;;;;;;;1.60;99.90;;;;;;5031494;28;19987;-73
2022/03/31 09:28:24;;;;;;;;;;;1.60;99.90;;;;;;5020876;28;19929;-73
2022/03/31 09:30:50;;;;;;;;;;;1.60;99.90;;;;;;5025165;28;19925;-73
2022/03/31 09:33:17;;;;;;;;;;;1.60;99.90;;;;;;5021306;28;19932;-72
2022/03/31 09:35:43;;;;;;;;;;;1.60;99.90;;;;;;5020178;28;19936;-72
2022/03/31 09:38:10;;;;;;;;;;;1.60;99.90;;;;;;5001616;28;19932;-73
2022/03/31 09:40:37;;;;;;;;;;;1.50;99.90;;;;;;5018397;28;19932;-73
2022/03/31 09:43:03;;;;;;;;;;;1.50;99.90;;;;;;5016002;28;19984;-73
2022/03/31 09:45:30;;;;;;;;;;;1.50;99.90;;;;;;5023207;28;19925;-72
2022/03/31 09:47:57;;;;;;;;;;;1.50;99.90;;;;;;5026975;28;19936;-72
2022/03/31 09:50:23;;;;;;;;;;;1.40;99.90;;;;;;5030495;28;19929;-73
2022/03/31 09:52:50;;;;;;;;;;;1.30;99.90;;;;;;5014139;28;20380;-73
2022/03/31 09:55:18;;;;;;;;;;;1.40;99.90;;;;;;5001497;28;20380;-73
2022/03/31 09:57:44;;;;;;;;;;;1.30;99.90;;;;;;5003680;28;19939;-73
2022/03/31 10:00:11;;;;;;;;;;;1.30;99.90;;;;;;5006788;28;19948;-73
2022/03/31 10:02:37;;;;;;;;;;;1.30;99.90;;;;;;5001558;28;19957;-73
2022/03/31 10:05:04;;;;;;;;;;;1.20;99.90;;;;;;5000879;28;19975;-73
2022/03/31 10:07:31;;;;;;;;;;;1.20;99.90;;;;;;5000105;28;20052;-73
2022/03/31 10:09:58;;;;;;;;;;;1.20;99.90;;;;;;5018476;28;19992;-73
2022/03/31 10:12:24;;;;;;;;;;;1.20;99.90;;;;;;5002226;28;19925;-73
2022/03/31 10:14:51;;;;;;;;;;;1.10;99.90;;;;;;5002317;28;20706;-73
2022/03/31 10:17:18;;;;;;;;;;;1.10;99.90;;;;;;5001723;28;19934;-73
2022/03/31 10:19:45;;;;;;;;;;;1.00;99.90;;;;;;5000027;28;19926;-73
2022/03/31 10:24:41;;;;;;;;;;;1.10;99.90;;;;;;5017081;28;19930;-73
2022/03/31 10:24:57;;;;;;;;;;;1.00;99.90;;;;;;4999808;28;19989;-74
2022/03/31 10:27:23;;;;;;;;;;;1.00;99.90;;;;;;5017054;28;19929;-74
2022/03/31 10:29:50;;;;;;;;;;;1.00;99.90;;;;;;5021889;28;19942;-75
2022/03/31 10:32:17;;;;;;;;;;;1.10;99.90;;;;;;5004205;28;19931;-75
2022/03/31 10:34:47;;;;;;;;;;;1.10;99.90;;;;;;5025063;28;19929;-74
2022/03/31 10:37:13;;;;;;;;;;;1.10;99.90;;;;;;5016631;28;19929;-74
2022/03/31 10:39:40;;;;;;;;;;;1.20;99.90;;;;;;5010749;28;19926;-75
2022/03/31 10:42:07;;;;;;;;;;;1.20;99.90;;;;;;5024500;28;19931;-74
2022/03/31 10:44:33;;;;;;;;;;;1.20;99.90;;;;;;5010224;28;20555;-74
2022/03/31 10:47:00;;;;;;;;;;;1.20;99.90;;;;;;5028480;28;20016;-74
2022/03/31 10:49:27;;;;;;;;;;;1.20;99.90;;;;;;5010039;28;19952;-74
2022/03/31 10:51:53;;;;;;;;;;;1.10;99.90;;;;;;5022374;28;20008;-74
2022/03/31 10:54:20;;;;;;;;;;;1.20;99.90;;;;;;5017853;28;20364;-74
2022/03/31 10:56:46;;;;;;;;;;;1.20;99.90;;;;;;5001914;28;20369;-74
2022/03/31 10:59:15;;;;;;;;;;;1.20;99.90;;;;;;5017709;28;19925;-74
2022/03/31 11:01:42;;;;;;;;;;;1.10;99.90;;;;;;5003793;28;20391;-74
2022/03/31 11:04:08;;;;;;;;;;;1.00;99.90;;;;;;5000070;28;19925;-73
2022/03/31 11:06:35;;;;;;;;;;;1.00;99.90;;;;;;5016693;28;19972;-74
2022/03/31 11:09:02;;;;;;;;;;;1.10;99.90;;;;;;5004274;28;20395;-74
2022/03/31 11:11:29;;;;;;;;;;;1.10;99.90;;;;;;5015239;28;20366;-74
2022/03/31 11:13:56;;;;;;;;;;;1.20;99.90;;;;;;5019006;28;19933;-75
2022/03/31 11:16:22;;;;;;;;;;;1.20;99.90;;;;;;5028483;28;20420;-73
2022/03/31 11:18:49;;;;;;;;;;;1.20;99.90;;;;;;5022011;28;19976;-74
2022/03/31 11:21:15;;;;;;;;;;;1.10;99.90;;;;;;5024180;28;20288;-74
2022/03/31 11:23:42;;;;;;;;;;;1.10;99.90;;;;;;5027835;28;20026;-76
2022/03/31 11:26:08;;;;;;;;;;;1.20;99.90;;;;;;5023983;28;20289;-74
2022/03/31 11:28:35;;;;;;;;;;;1.10;99.90;;;;;;5016994;28;20036;-74
2022/03/31 11:31:06;;;;;;;;;;;1.10;99.90;;;;;;5029029;28;20059;-74
2022/03/31 11:33:33;;;;;;;;;;;1.10;99.90;;;;;;5028251;28;19926;-75
2022/03/31 11:35:59;;;;;;;;;;;1.10;99.90;;;;;;5028138;28;19925;-74
2022/03/31 11:38:27;;;;;;;;;;;1.10;99.90;;;;;;5022026;28;19925;-74
2022/03/31 11:40:53;;;;;;;;;;;1.20;99.90;;;;;;5004578;28;19972;-75
2022/03/31 11:43:20;;;;;;;;;;;1.10;99.90;;;;;;5017738;28;20390;-76
2022/03/31 11:45:48;;;;;;;;;;;1.20;99.90;;;;;;5016636;28;19979;-75
2022/03/31 11:48:14;;;;;;;;;;;1.00;99.90;;;;;;5023949;28;19925;-74
2022/03/31 11:50:41;;;;;;;;;;;1.10;99.90;;;;;;5023332;28;19925;-74
2022/03/31 11:53:07;;;;;;;;;;;1.00;99.90;;;;;;5023753;28;19930;-74
2022/03/31 11:55:34;;;;;;;;;;;1.10;99.90;;;;;;5014607;28;20016;-75
2022/03/31 11:58:00;;;;;;;;;;;1.20;99.90;;;;;;5030972;28;20257;-75
2022/03/31 12:00:27;;;;;;;;;;;1.20;99.90;;;;;;5013477;28;20385;-74
2022/03/31 12:02:54;;;;;;;;;;;1.20;99.90;;;;;;5012797;28;20008;-75
2022/03/31 12:05:21;;;;;;;;;;;1.30;99.90;;;;;;5009267;28;20008;-74
2022/03/31 12:07:48;;;;;;;;;;;1.30;99.90;;;;;;4997584;28;20016;-74
2022/03/31 12:10:15;;;;;;;;;;;1.30;99.90;;;;;;5031905;28;19925;-74
2022/03/31 12:12:41;;;;;;;;;;;1.40;99.90;;;;;;5005198;28;19929;-74
2022/03/31 12:15:08;;;;;;;;;;;1.40;99.90;;;;;;5029087;28;19932;-73
2022/03/31 12:17:35;;;;;;;;;;;1.50;99.90;;;;;;5016686;28;20335;-73
2022/03/31 12:20:01;;;;;;;;;;;1.50;99.90;;;;;;5024167;28;20308;-73
2022/03/31 12:22:28;;;;;;;;;;;1.60;99.90;;;;;;5030969;28;19964;-75
2022/03/31 12:24:54;;;;;;;;;;;1.50;99.90;;;;;;5023672;28;19932;-75
2022/03/31 12:27:23;;;;;;;;;;;1.60;99.90;;;;;;5025297;28;19926;-74
2022/03/31 12:29:50;;;;;;;;;;;1.60;99.90;;;;;;5024998;28;19925;-74
2022/03/31 12:32:16;;;;;;;;;;;1.60;99.90;;;;;;5031135;28;19952;-73
2022/03/31 12:34:43;;;;;;;;;;;1.80;99.90;;;;;;5034840;28;19925;-73
2022/03/31 12:37:10;;;;;;;;;;;1.70;99.90;;;;;;5028186;28;19925;-74
2022/03/31 12:39:36;;;;;;;;;;;1.80;99.90;;;;;;5033259;28;19929;-73
2022/03/31 12:42:03;;;;;;;;;;;1.90;99.90;;;;;;5030247;28;19932;-74
2022/03/31 12:44:32;;;;;;;;;;;1.90;99.90;;;;;;5033446;28;20390;-73
2022/03/31 12:46:59;;;;;;;;;;;1.90;99.90;;;;;;5025254;28;19932;-74
2022/03/31 12:49:25;;;;;;;;;;;2.00;99.90;;;;;;5030014;28;19972;-73
2022/03/31 12:51:52;;;;;;;;;;;1.90;99.90;;;;;;5001851;28;19925;-75
2022/03/31 12:54:18;;;;;;;;;;;1.80;99.90;;;;;;5018934;28;19933;-73
2022/03/31 12:56:45;;;;;;;;;;;1.90;99.90;;;;;;5025723;28;20370;-73
2022/03/31 12:59:11;;;;;;;;;;;1.80;99.90;;;;;;4998995;28;19925;-73
2022/03/31 13:01:38;;;;;;;;;;;1.80;99.90;;;;;;5021848;28;19925;-73
2022/03/31 13:04:05;;;;;;;;;;;1.70;99.90;;;;;;5015139;28;19932;-73
2022/03/31 13:06:31;;;;;;;;;;;1.70;99.90;;;;;;5020918;28;20019;-72
2022/03/31 13:08:58;;;;;;;;;;;1.70;99.90;;;;;;5025059;28;19933;-74
2022/03/31 13:11:24;;;;;;;;;;;1.70;99.90;;;;;;5024957;28;19965;-73
2022/03/31 13:13:51;;;;;;;;;;;1.80;99.90;;;;;;5015512;28;19973;-74
2022/03/31 13:16:18;;;;;;;;;;;1.70;99.90;;;;;;5000790;28;20364;-73
2022/03/31 13:18:44;;;;;;;;;;;1.70;99.90;;;;;;5015860;28;19945;-73
2022/03/31 13:21:11;;;;;;;;;;;1.80;99.90;;;;;;5003582;28;20043;-73
2022/03/31 13:23:38;;;;;;;;;;;1.60;99.90;;;;;;4999003;28;20281;-72
2022/03/31 13:26:04;;;;;;;;;;;1.60;99.90;;;;;;5015452;28;19956;-74
2022/03/31 13:28:31;;;;;;;;;;;1.60;99.90;;;;;;5003285;28;20296;-73
2022/03/31 13:30:58;;;;;;;;;;;1.70;99.90;;;;;;5017771;28;19925;-72
2022/03/31 13:33:24;;;;;;;;;;;1.60;99.90;;;;;;5029244;28;20414;-75
2022/03/31 13:35:51;;;;;;;;;;;1.60;99.90;;;;;;5017960;28;20300;-75
2022/03/31 13:38:18;;;;;;;;;;;1.60;99.90;;;;;;5019664;28;20023;-72
2022/03/31 13:40:44;;;;;;;;;;;1.60;99.90;;;;;;5028172;28;19929;-71
2022/03/31 13:43:11;;;;;;;;;;;1.70;99.90;;;;;;5019450;28;19940;-71
2022/03/31 13:45:37;;;;;;;;;;;1.60;99.90;;;;;;5030785;28;20376;-72
2022/03/31 13:48:04;;;;;;;;;;;1.60;99.90;;;;;;5021463;28;19929;-72
2022/03/31 13:50:30;;;;;;;;;;;1.60;99.90;;;;;;5002478;28;19937;-72
2022/03/31 13:55:41;;;;;;;;;;;1.70;99.90;;;;;;5014769;28;19932;-73
2022/03/31 14:01:11;;;;;;;;;;;1.60;99.90;;;;;;5016765;28;19940;-76
2022/03/31 14:03:38;;;;;;;;;;;1.50;99.90;;;;;;5000569;28;19948;-75
2022/03/31 14:06:05;;;;;;;;;;;1.50;99.90;;;;;;4997575;28;19926;-72
2022/03/31 14:08:31;;;;;;;;;;;1.50;99.90;;;;;;5002081;28;20327;-72
2022/03/31 14:10:58;;;;;;;;;;;1.50;99.90;;;;;;5016626;28;20016;-75
2022/03/31 14:13:24;;;;;;;;;;;1.60;99.90;;;;;;5023237;28;19925;-72
2022/03/31 14:15:51;;;;;;;;;;;1.60;99.90;;;;;;5030749;28;19932;-76
2022/03/31 14:18:17;;;;;;;;;;;1.50;99.90;;;;;;5011754;28;19935;-73
2022/03/31 14:20:44;;;;;;;;;;;1.60;99.90;;;;;;5015855;28;19948;-73
2022/03/31 14:23:11;;;;;;;;;;;1.60;99.90;;;;;;5016568;28;20120;-74
2022/03/31 14:25:38;;;;;;;;;;;1.70;99.90;;;;;;5019045;28;19929;-73
2022/03/31 14:28:05;;;;;;;;;;;1.60;99.90;;;;;;5005021;28;20289;-73
2022/03/31 14:30:32;;;;;;;;;;;1.80;99.90;;;;;;5015159;28;19925;-73
2022/03/31 14:32:59;;;;;;;;;;;1.80;99.90;;;;;;5006793;28;19926;-74
2022/03/31 14:35:25;;;;;;;;;;;1.80;99.90;;;;;;5020158;28;19929;-73